Time;durP1;ratioP1;P1;durP2;ratioP2;P2;SDS_P1;SDS_P2;PMS_P1;PMS_P2;Temp;Humidity;BMP_temperature;BMP_pressure;BME280_temperature;BME280_humidity;BME280_pressure;Samples;Min_cycle;Max_cycle;Signal;HPM_P1;HPM_P2
2023/01/03 00:01:16;;;;;;;0.60;0.60;;;;;;;;;;5138913;27;20194;-59
2023/01/03 00:03:45;;;;;;;0.50;0.50;;;;;;;;;;5138825;27;20214;-59
2023/01/03 00:06:17;;;;;;;0.40;0.40;;;;;;;;;;5139225;27;20210;-59
2023/01/03 00:08:45;;;;;;;0.60;0.60;;;;;;;;;;5138912;27;20263;-59
2023/01/03 00:11:13;;;;;;;0.63;0.60;;;;;;;;;;5138794;27;20256;-59
2023/01/03 00:13:40;;;;;;;0.50;0.50;;;;;;;;;;5139043;27;20267;-59
2023/01/03 00:16:15;;;;;;;0.73;0.65;;;;;;;;;;5139233;27;20198;-59
2023/01/03 00:18:43;;;;;;;0.50;0.45;;;;;;;;;;5138777;27;20628;-59
2023/01/03 00:21:10;;;;;;;0.40;0.40;;;;;;;;;;5138553;27;20620;-59
2023/01/03 00:23:40;;;;;;;0.60;0.60;;;;;;;;;;5138777;27;20202;-59
2023/01/03 00:26:11;;;;;;;0.40;0.40;;;;;;;;;;5139072;27;20201;-59
2023/01/03 00:28:39;;;;;;;0.40;0.40;;;;;;;;;;5139065;27;20588;-59
2023/01/03 00:31:08;;;;;;;0.47;0.47;;;;;;;;;;5138825;27;20578;-59
2023/01/03 00:33:36;;;;;;;0.50;0.50;;;;;;;;;;5138319;27;20202;-59
2023/01/03 00:36:03;;;;;;;0.47;0.47;;;;;;;;;;5138286;27;20331;-59
2023/01/03 00:38:31;;;;;;;0.60;0.50;;;;;;;;;;5137923;27;20201;-59
2023/01/03 00:41:06;;;;;;;0.45;0.45;;;;;;;;;;5137943;27;20313;-59
2023/01/03 00:43:34;;;;;;;0.50;0.50;;;;;;;;;;5138688;27;20201;-59
2023/01/03 00:46:01;;;;;;;0.40;0.40;;;;;;;;;;5138216;27;20206;-59
2023/01/03 00:48:30;;;;;;;0.70;0.47;;;;;;;;;;5138627;27;20209;-59
2023/01/03 00:50:58;;;;;;;0.50;0.40;;;;;;;;;;5138819;27;20296;-59
2023/01/03 00:53:25;;;;;;;0.52;0.50;;;;;;;;;;5138739;27;20229;-59
2023/01/03 00:55:54;;;;;;;0.73;0.40;;;;;;;;;;5138448;27;20215;-59
2023/01/03 00:58:24;;;;;;;0.30;0.30;;;;;;;;;;5138107;28;20305;-59
2023/01/03 01:00:51;;;;;;;0.45;0.40;;;;;;;;;;5138234;28;20333;-59
2023/01/03 01:03:19;;;;;;;0.20;0.20;;;;;;;;;;5138607;28;20234;-59
2023/01/03 01:05:47;;;;;;;0.50;0.50;;;;;;;;;;5138437;28;20256;-59
2023/01/03 01:08:15;;;;;;;0.40;0.40;;;;;;;;;;5138879;28;20578;-59
2023/01/03 01:11:00;;;;;;;0.40;0.40;;;;;;;;;;5138189;28;20198;-59
2023/01/03 01:13:30;;;;;;;0.50;0.50;;;;;;;;;;5137971;28;20263;-59
2023/01/03 01:16:01;;;;;;;0.40;0.40;;;;;;;;;;5138301;28;20483;-60
2023/01/03 01:18:29;;;;;;;0.40;0.40;;;;;;;;;;5138206;28;20292;-59
2023/01/03 01:20:57;;;;;;;0.40;0.40;;;;;;;;;;5138243;28;20233;-59
2023/01/03 01:23:24;;;;;;;0.30;0.30;;;;;;;;;;5137845;28;20210;-59
2023/01/03 01:25:52;;;;;;;0.38;0.38;;;;;;;;;;5138218;28;20581;-59
2023/01/03 01:28:20;;;;;;;0.40;0.40;;;;;;;;;;5138070;28;20231;-59
2023/01/03 01:30:49;;;;;;;0.45;0.38;;;;;;;;;;5137487;28;20296;-59
2023/01/03 01:33:17;;;;;;;0.50;0.40;;;;;;;;;;5137429;28;20270;-59
2023/01/03 01:35:44;;;;;;;0.40;0.40;;;;;;;;;;5137521;27;20202;-59
2023/01/03 01:38:12;;;;;;;0.40;0.40;;;;;;;;;;5141735;27;20216;-59
2023/01/03 01:40:40;;;;;;;0.45;0.40;;;;;;;;;;5141560;27;20232;-59
2023/01/03 01:46:03;;;;;;;0.30;0.30;;;;;;;;;;5141167;27;20250;-59
2023/01/03 01:48:31;;;;;;;0.40;0.30;;;;;;;;;;5141097;27;20557;-59
2023/01/03 01:50:59;;;;;;;0.30;0.30;;;;;;;;;;5140823;27;20198;-59
2023/01/03 01:53:29;;;;;;;0.40;0.38;;;;;;;;;;5140486;27;20552;-59
2023/01/03 01:55:59;;;;;;;0.30;0.30;;;;;;;;;;5141209;27;20597;-59
2023/01/03 01:58:28;;;;;;;0.47;0.35;;;;;;;;;;5141449;27;20202;-59
2023/01/03 02:00:56;;;;;;;0.50;0.30;;;;;;;;;;5140482;27;20222;-59
2023/01/03 02:03:25;;;;;;;0.35;0.35;;;;;;;;;;5141058;27;20203;-59
2023/01/03 02:05:55;;;;;;;0.45;0.30;;;;;;;;;;5140769;27;20268;-60
2023/01/03 02:08:24;;;;;;;0.22;0.22;;;;;;;;;;5140471;27;20262;-59
2023/01/03 02:11:10;;;;;;;0.40;0.40;;;;;;;;;;5140878;27;20206;-59
2023/01/03 02:13:41;;;;;;;0.40;0.40;;;;;;;;;;5140807;27;20194;-59
2023/01/03 02:16:15;;;;;;;0.40;0.40;;;;;;;;;;5141355;27;20692;-58
2023/01/03 02:18:49;;;;;;;0.40;0.40;;;;;;;;;;5141078;27;20228;-58
2023/01/03 02:21:38;;;;;;;0.20;0.20;;;;;;;;;;5140597;27;20222;-59
2023/01/03 02:24:17;;;;;;;0.30;0.30;;;;;;;;;;5140460;27;20266;-59
2023/01/03 02:26:57;;;;;;;0.32;0.32;;;;;;;;;;5140067;27;20351;-60
2023/01/03 02:29:43;;;;;;;0.30;0.30;;;;;;;;;;5140037;27;20675;-59
2023/01/03 02:32:16;;;;;;;0.30;0.30;;;;;;;;;;5140526;27;20297;-59
2023/01/03 02:34:47;;;;;;;0.28;0.28;;;;;;;;;;5140531;27;20608;-60
2023/01/03 02:37:18;;;;;;;0.32;0.32;;;;;;;;;;5140920;27;20202;-59
2023/01/03 02:39:48;;;;;;;0.30;0.30;;;;;;;;;;5140555;27;20206;-59
2023/01/03 02:45:07;;;;;;;0.30;0.30;;;;;;;;;;5140537;27;20193;-59
2023/01/03 02:47:40;;;;;;;0.43;0.40;;;;;;;;;;5140338;27;20252;-60
2023/01/03 02:50:10;;;;;;;0.30;0.30;;;;;;;;;;5140859;27;20281;-59
2023/01/03 02:52:39;;;;;;;0.20;0.20;;;;;;;;;;5140594;27;20296;-59
2023/01/03 02:55:09;;;;;;;0.30;0.30;;;;;;;;;;5140692;27;20213;-59
2023/01/03 02:57:39;;;;;;;0.28;0.20;;;;;;;;;;5140032;27;20210;-59
2023/01/03 03:00:08;;;;;;;0.40;0.40;;;;;;;;;;5140184;27;20238;-59
2023/01/03 03:02:38;;;;;;;1.13;0.30;;;;;;;;;;5140068;27;20202;-59
2023/01/03 03:05:09;;;;;;;0.30;0.20;;;;;;;;;;5140817;27;20230;-59
2023/01/03 03:07:39;;;;;;;0.30;0.30;;;;;;;;;;5140449;27;20194;-58
2023/01/03 03:13:13;;;;;;;0.38;0.30;;;;;;;;;;5139757;27;20198;-59
2023/01/03 03:15:44;;;;;;;0.43;0.20;;;;;;;;;;5140376;27;20209;-60
2023/01/03 03:18:15;;;;;;;0.30;0.30;;;;;;;;;;5140066;27;20203;-58
2023/01/03 03:26:17;;;;;;;0.20;0.20;;;;;;;;;;5139623;27;20213;-59
2023/01/03 03:28:45;;;;;;;0.57;0.30;;;;;;;;;;5140399;27;20517;-59
2023/01/03 03:31:16;;;;;;;0.30;0.30;;;;;;;;;;5140583;27;20208;-58
2023/01/03 03:33:48;;;;;;;0.35;0.35;;;;;;;;;;5139600;27;20233;-59
2023/01/03 03:36:19;;;;;;;0.28;0.28;;;;;;;;;;5140042;27;20237;-59
2023/01/03 03:38:47;;;;;;;0.28;0.28;;;;;;;;;;5140043;27;20203;-59
2023/01/03 03:46:56;;;;;;;0.17;0.17;;;;;;;;;;5139251;27;20628;-59
2023/01/03 03:49:37;;;;;;;0.30;0.30;;;;;;;;;;5139761;27;20232;-59
2023/01/03 03:52:06;;;;;;;0.22;0.20;;;;;;;;;;5139666;27;20285;-60
2023/01/03 03:54:35;;;;;;;0.30;0.30;;;;;;;;;;5139286;27;20247;-59
2023/01/03 03:57:05;;;;;;;0.20;0.20;;;;;;;;;;5138982;27;20202;-60
2023/01/03 03:59:34;;;;;;;0.20;0.20;;;;;;;;;;5138383;27;20230;-58
2023/01/03 04:02:03;;;;;;;0.30;0.30;;;;;;;;;;5139460;27;20222;-59
2023/01/03 04:04:36;;;;;;;0.20;0.20;;;;;;;;;;5139812;27;20293;-59
2023/01/03 04:07:04;;;;;;;0.30;0.30;;;;;;;;;;5139644;27;20206;-59
2023/01/03 04:09:32;;;;;;;0.30;0.30;;;;;;;;;;5139394;27;20202;-58
2023/01/03 04:12:00;;;;;;;0.32;0.32;;;;;;;;;;5138782;27;20258;-58
2023/01/03 04:14:28;;;;;;;0.20;0.20;;;;;;;;;;5138633;27;20210;-58
2023/01/03 04:16:55;;;;;;;0.20;0.20;;;;;;;;;;5139402;27;20255;-59
2023/01/03 04:19:23;;;;;;;0.30;0.22;;;;;;;;;;5138731;27;20202;-59
2023/01/03 04:21:52;;;;;;;0.30;0.30;;;;;;;;;;5138967;27;20485;-58
2023/01/03 04:24:21;;;;;;;0.30;0.30;;;;;;;;;;5139163;27;20202;-59
2023/01/03 04:26:49;;;;;;;0.25;0.20;;;;;;;;;;5139012;27;20289;-59
2023/01/03 04:29:16;;;;;;;0.20;0.20;;;;;;;;;;5138707;27;20214;-58
2023/01/03 04:31:44;;;;;;;0.20;0.20;;;;;;;;;;5138876;27;20198;-59
2023/01/03 04:34:12;;;;;;;0.20;0.20;;;;;;;;;;5138547;27;20263;-59
2023/01/03 04:36:40;;;;;;;0.25;0.25;;;;;;;;;;5138425;27;20205;-59
2023/01/03 04:39:09;;;;;;;0.30;0.30;;;;;;;;;;5138722;27;20198;-58
2023/01/03 04:41:37;;;;;;;0.30;0.30;;;;;;;;;;5138097;27;20629;-58
2023/01/03 04:44:03;;;;;;;0.22;0.20;;;;;;;;;;5138712;27;20233;-58
2023/01/03 04:46:32;;;;;;;0.22;0.22;;;;;;;;;;5138937;27;20629;-59
2023/01/03 04:49:00;;;;;;;0.28;0.28;;;;;;;;;;5137926;27;20210;-58
2023/01/03 04:51:28;;;;;;;0.30;0.20;;;;;;;;;;5138205;27;20212;-59
2023/01/03 04:53:56;;;;;;;0.20;0.20;;;;;;;;;;5138098;27;20261;-58
2023/01/03 04:56:26;;;;;;;0.20;0.20;;;;;;;;;;5137834;27;20206;-59
2023/01/03 04:58:54;;;;;;;0.30;0.15;;;;;;;;;;5138089;28;20320;-59
2023/01/03 05:01:22;;;;;;;0.20;0.20;;;;;;;;;;5137842;28;20818;-58
2023/01/03 05:03:49;;;;;;;0.30;0.30;;;;;;;;;;5137866;28;20285;-58
2023/01/03 05:06:17;;;;;;;0.20;0.20;;;;;;;;;;5137766;28;20300;-58
2023/01/03 05:08:46;;;;;;;0.30;0.30;;;;;;;;;;5138195;28;20272;-58
2023/01/03 05:11:13;;;;;;;0.20;0.20;;;;;;;;;;5138310;27;20514;-59
2023/01/03 05:13:42;;;;;;;0.20;0.20;;;;;;;;;;5141405;27;20198;-60
2023/01/03 05:16:11;;;;;;;0.20;0.20;;;;;;;;;;5141345;27;20202;-59
2023/01/03 05:18:38;;;;;;;0.20;0.20;;;;;;;;;;5141976;27;20565;-59
2023/01/03 05:26:40;;;;;;;0.40;0.30;;;;;;;;;;5141255;27;20189;-59
2023/01/03 05:29:10;;;;;;;0.30;0.30;;;;;;;;;;5141394;27;20300;-59
2023/01/03 05:31:38;;;;;;;0.25;0.25;;;;;;;;;;5141593;27;20194;-59
2023/01/03 05:34:05;;;;;;;0.22;0.20;;;;;;;;;;5141247;27;20256;-59
2023/01/03 05:36:32;;;;;;;0.30;0.30;;;;;;;;;;5140812;27;20281;-59
2023/01/03 05:39:00;;;;;;;0.30;0.28;;;;;;;;;;5140974;27;20293;-59
2023/01/03 05:44:13;;;;;;;0.30;0.30;;;;;;;;;;5139834;27;20676;-59
2023/01/03 05:46:41;;;;;;;0.30;0.30;;;;;;;;;;5139731;27;20306;-59
2023/01/03 05:49:09;;;;;;;0.30;0.30;;;;;;;;;;5139778;27;20224;-59
2023/01/03 05:51:36;;;;;;;0.30;0.30;;;;;;;;;;5140013;27;20557;-59
2023/01/03 05:54:03;;;;;;;0.20;0.20;;;;;;;;;;5139821;27;20281;-59
2023/01/03 05:56:31;;;;;;;0.25;0.20;;;;;;;;;;5139488;27;20202;-59
2023/01/03 05:58:58;;;;;;;0.20;0.20;;;;;;;;;;5139317;27;20234;-58
2023/01/03 06:01:28;;;;;;;0.20;0.20;;;;;;;;;;5138586;27;20236;-59
2023/01/03 06:03:55;;;;;;;0.40;0.30;;;;;;;;;;5139145;27;20203;-59
2023/01/03 06:06:23;;;;;;;0.30;0.20;;;;;;;;;;5138767;27;20230;-60
2023/01/03 06:08:50;;;;;;;0.35;0.35;;;;;;;;;;5139103;27;20289;-60
2023/01/03 06:11:18;;;;;;;0.35;0.35;;;;;;;;;;5138234;27;20297;-58
2023/01/03 06:13:46;;;;;;;0.30;0.30;;;;;;;;;;5138415;27;20202;-61
2023/01/03 06:19:01;;;;;;;0.20;0.20;;;;;;;;;;5137353;27;20585;-60
2023/01/03 06:21:28;;;;;;;0.20;0.20;;;;;;;;;;5137850;27;20218;-61
2023/01/03 06:23:56;;;;;;;0.20;0.20;;;;;;;;;;5138252;27;20259;-60
2023/01/03 06:26:24;;;;;;;0.50;0.30;;;;;;;;;;5138421;27;20649;-59
2023/01/03 06:28:51;;;;;;;0.47;0.30;;;;;;;;;;5139198;27;20770;-60
2023/01/03 06:31:19;;;;;;;0.70;0.35;;;;;;;;;;5138637;27;20229;-60
2023/01/03 06:33:46;;;;;;;0.40;0.30;;;;;;;;;;5139048;27;20204;-58
2023/01/03 06:36:16;;;;;;;0.30;0.30;;;;;;;;;;5138338;27;20285;-60
2023/01/03 06:38:43;;;;;;;0.90;0.40;;;;;;;;;;5137862;27;20202;-61
2023/01/03 06:41:11;;;;;;;0.28;0.28;;;;;;;;;;5137148;27;20313;-61
2023/01/03 06:43:38;;;;;;;0.63;0.30;;;;;;;;;;5137904;27;20213;-60
2023/01/03 06:54:23;;;;;;;0.65;0.35;;;;;;;;;;5138288;27;20275;-59
2023/01/03 06:56:51;;;;;;;0.40;0.40;;;;;;;;;;5137544;27;20209;-60
2023/01/03 06:59:18;;;;;;;1.40;0.40;;;;;;;;;;5136968;27;20321;-61
2023/01/03 07:01:46;;;;;;;0.30;0.30;;;;;;;;;;5137975;27;20673;-59
2023/01/03 07:04:14;;;;;;;0.88;0.40;;;;;;;;;;5138183;27;20306;-58
2023/01/03 07:06:43;;;;;;;0.50;0.30;;;;;;;;;;5157287;27;20287;-60
2023/01/03 07:09:11;;;;;;;0.30;0.30;;;;;;;;;;5138211;27;20283;-60
2023/01/03 07:11:39;;;;;;;0.77;0.45;;;;;;;;;;5130903;27;20248;-60
2023/01/03 07:14:05;;;;;;;1.30;0.40;;;;;;;;;;5137447;27;20228;-60
2023/01/03 07:16:34;;;;;;;0.52;0.40;;;;;;;;;;5137558;27;20199;-61
2023/01/03 07:19:01;;;;;;;0.52;0.25;;;;;;;;;;5137474;27;20230;-60
2023/01/03 07:21:30;;;;;;;0.40;0.40;;;;;;;;;;5138012;27;20324;-60
2023/01/03 07:24:00;;;;;;;0.50;0.32;;;;;;;;;;5138240;27;20228;-59
2023/01/03 07:26:29;;;;;;;0.47;0.40;;;;;;;;;;5137494;27;20210;-60
2023/01/03 07:28:56;;;;;;;0.80;0.50;;;;;;;;;;5137860;27;20202;-60
2023/01/03 07:31:24;;;;;;;0.35;0.35;;;;;;;;;;5138063;27;20672;-60
2023/01/03 07:33:52;;;;;;;0.40;0.30;;;;;;;;;;5136373;27;20796;-60
2023/01/03 07:36:20;;;;;;;1.10;0.40;;;;;;;;;;5136960;27;20221;-60
2023/01/03 07:38:47;;;;;;;0.88;0.47;;;;;;;;;;5136711;27;20212;-60
2023/01/03 07:41:17;;;;;;;0.68;0.50;;;;;;;;;;5136413;27;20300;-60
2023/01/03 07:43:44;;;;;;;0.60;0.52;;;;;;;;;;5136624;27;20289;-60
2023/01/03 07:46:14;;;;;;;0.65;0.40;;;;;;;;;;5128452;27;20267;-60
2023/01/03 07:48:42;;;;;;;0.52;0.40;;;;;;;;;;5136499;27;20200;-60
2023/01/03 07:51:10;;;;;;;1.40;0.35;;;;;;;;;;5136282;27;20194;-60
2023/01/03 07:53:38;;;;;;;0.57;0.38;;;;;;;;;;5135494;27;20581;-60
2023/01/03 07:56:07;;;;;;;0.60;0.40;;;;;;;;;;5136453;27;20305;-60
2023/01/03 07:58:36;;;;;;;0.40;0.30;;;;;;;;;;5136147;27;20201;-60
2023/01/03 08:01:05;;;;;;;0.68;0.43;;;;;;;;;;5130002;27;20259;-60
2023/01/03 08:03:32;;;;;;;0.52;0.47;;;;;;;;;;5125349;27;20206;-60
2023/01/03 08:06:04;;;;;;;1.10;0.32;;;;;;;;;;5132681;27;20210;-60
2023/01/03 08:08:31;;;;;;;0.98;0.40;;;;;;;;;;5136151;27;20213;-60
2023/01/03 08:13:45;;;;;;;0.98;0.45;;;;;;;;;;5135840;27;20209;-60
2023/01/03 08:16:14;;;;;;;1.25;0.50;;;;;;;;;;5135572;27;20203;-61
2023/01/03 08:18:42;;;;;;;1.77;0.40;;;;;;;;;;5135469;27;20213;-59
2023/01/03 08:21:11;;;;;;;0.50;0.50;;;;;;;;;;5135405;27;20202;-59
2023/01/03 08:23:39;;;;;;;0.55;0.40;;;;;;;;;;5135653;27;20219;-58
2023/01/03 08:26:07;;;;;;;1.63;0.55;;;;;;;;;;5136168;27;20198;-59
2023/01/03 08:28:35;;;;;;;1.80;0.40;;;;;;;;;;5135356;27;20210;-60
2023/01/03 08:31:07;;;;;;;1.27;0.50;;;;;;;;;;5133243;27;20213;-60
2023/01/03 08:33:36;;;;;;;1.10;0.50;;;;;;;;;;5130146;27;20283;-60
2023/01/03 08:36:07;;;;;;;1.10;0.50;;;;;;;;;;5135925;27;20198;-60
2023/01/03 08:38:36;;;;;;;0.73;0.45;;;;;;;;;;5136667;27;20203;-60
2023/01/03 08:41:06;;;;;;;0.75;0.40;;;;;;;;;;5136113;27;20289;-60
2023/01/03 08:43:36;;;;;;;0.90;0.60;;;;;;;;;;5135975;27;20587;-60
2023/01/03 08:48:33;;;;;;;0.70;0.45;;;;;;;;;;5112301;28;20231;-58
2023/01/03 08:51:01;;;;;;;0.90;0.50;;;;;;;;;;5115247;28;20209;-58
2023/01/03 08:53:28;;;;;;;0.82;0.50;;;;;;;;;;5115008;28;20198;-58
2023/01/03 08:55:56;;;;;;;1.60;0.70;;;;;;;;;;5115024;28;20202;-59
2023/01/03 08:58:23;;;;;;;0.40;0.40;;;;;;;;;;5114632;28;20286;-58
2023/01/03 09:00:51;;;;;;;1.25;0.30;;;;;;;;;;5114916;28;20293;-58
2023/01/03 09:03:18;;;;;;;0.82;0.40;;;;;;;;;;5115086;28;20321;-58
2023/01/03 09:05:47;;;;;;;0.90;0.30;;;;;;;;;;5114920;28;20207;-58
2023/01/03 09:08:17;;;;;;;0.60;0.43;;;;;;;;;;5114712;28;20203;-58
2023/01/03 09:10:45;;;;;;;0.60;0.60;;;;;;;;;;5114860;28;20199;-58
2023/01/03 09:13:13;;;;;;;0.80;0.40;;;;;;;;;;5114703;28;20201;-58
2023/01/03 09:15:40;;;;;;;0.82;0.40;;;;;;;;;;5114731;28;20281;-58
2023/01/03 09:18:07;;;;;;;0.40;0.40;;;;;;;;;;5115117;28;20238;-60
2023/01/03 09:20:35;;;;;;;1.05;0.40;;;;;;;;;;5114881;28;20199;-58
2023/01/03 09:23:04;;;;;;;1.90;0.50;;;;;;;;;;5114836;28;20218;-58
2023/01/03 09:25:31;;;;;;;0.57;0.32;;;;;;;;;;5114904;28;20194;-58
2023/01/03 09:27:59;;;;;;;0.63;0.45;;;;;;;;;;5114312;28;20199;-58
2023/01/03 09:30:26;;;;;;;1.95;0.60;;;;;;;;;;5115260;28;20281;-58
2023/01/03 09:32:54;;;;;;;0.65;0.50;;;;;;;;;;5115205;28;20200;-58
2023/01/03 09:35:21;;;;;;;2.22;0.55;;;;;;;;;;5115870;28;20280;-58
2023/01/03 09:37:49;;;;;;;2.05;0.55;;;;;;;;;;5115287;28;20306;-58
2023/01/03 09:40:18;;;;;;;2.35;0.60;;;;;;;;;;5115476;28;20202;-58
2023/01/03 09:45:33;;;;;;;2.50;0.40;;;;;;;;;;5115672;28;20280;-58
2023/01/03 09:48:01;;;;;;;1.92;0.40;;;;;;;;;;5115524;28;20234;-58
2023/01/03 09:50:30;;;;;;;0.77;0.60;;;;;;;;;;5114730;28;20209;-58
2023/01/03 10:04:18;;;;;;;1.20;0.57;;;;;;;;;;5118770;28;20202;-58
2023/01/03 10:06:50;;;;;;;1.35;0.50;;;;;;;;;;5118531;28;20744;-58
2023/01/03 10:09:23;;;;;;;0.40;0.40;;;;;;;;;;5118949;28;20210;-58
2023/01/03 10:11:57;;;;;;;1.42;0.50;;;;;;;;;;5118951;28;20301;-58
2023/01/03 10:14:33;;;;;;;0.65;0.63;;;;;;;;;;5118394;28;20263;-58
2023/01/03 10:17:05;;;;;;;0.88;0.50;;;;;;;;;;5118281;28;20241;-58
2023/01/03 10:19:47;;;;;;;1.95;0.40;;;;;;;;;;5118025;28;20575;-58
2023/01/03 10:22:17;;;;;;;0.70;0.50;;;;;;;;;;5117689;28;20322;-58
2023/01/03 10:24:47;;;;;;;0.95;0.40;;;;;;;;;;5117973;28;20283;-58
2023/01/03 10:27:17;;;;;;;1.02;0.45;;;;;;;;;;5117957;28;20309;-58
2023/01/03 10:29:45;;;;;;;0.60;0.60;;;;;;;;;;5118587;28;20260;-58
2023/01/03 10:32:19;;;;;;;1.63;0.60;;;;;;;;;;5118368;28;20195;-58
2023/01/03 10:35:03;;;;;;;0.75;0.50;;;;;;;;;;5117221;28;20293;-58
2023/01/03 10:37:31;;;;;;;0.55;0.55;;;;;;;;;;5117150;28;20237;-58
2023/01/03 10:40:02;;;;;;;0.50;0.40;;;;;;;;;;5116953;28;20483;-58
2023/01/03 10:42:31;;;;;;;0.80;0.60;;;;;;;;;;5117507;28;20640;-58
2023/01/03 10:45:01;;;;;;;0.50;0.50;;;;;;;;;;5116955;28;20230;-58
2023/01/03 10:47:28;;;;;;;0.63;0.50;;;;;;;;;;5116965;28;20238;-58
2023/01/03 10:49:59;;;;;;;0.60;0.47;;;;;;;;;;5118072;28;20678;-58
2023/01/03 10:52:30;;;;;;;0.70;0.40;;;;;;;;;;5117778;28;20199;-58
2023/01/03 10:55:00;;;;;;;0.98;0.45;;;;;;;;;;5117043;28;20305;-58
2023/01/03 10:57:44;;;;;;;0.88;0.60;;;;;;;;;;5116655;28;20202;-58
2023/01/03 11:00:22;;;;;;;0.90;0.40;;;;;;;;;;5118183;28;20567;-58
2023/01/03 11:02:50;;;;;;;0.50;0.47;;;;;;;;;;5116658;28;20218;-58
2023/01/03 11:05:19;;;;;;;2.08;0.60;;;;;;;;;;5116747;28;20692;-58
2023/01/03 11:07:49;;;;;;;0.80;0.50;;;;;;;;;;5116848;28;20286;-58
2023/01/03 11:10:17;;;;;;;2.25;0.60;;;;;;;;;;5117159;28;20209;-58
2023/01/03 11:12:46;;;;;;;0.52;0.40;;;;;;;;;;5117042;28;20380;-58
2023/01/03 11:15:17;;;;;;;0.73;0.70;;;;;;;;;;5115730;28;20594;-58
2023/01/03 11:17:55;;;;;;;1.33;0.50;;;;;;;;;;5115827;28;20202;-58
2023/01/03 11:20:22;;;;;;;0.55;0.40;;;;;;;;;;5115965;28;20209;-59
2023/01/03 11:22:52;;;;;;;0.50;0.50;;;;;;;;;;5115834;28;20333;-59
2023/01/03 11:25:35;;;;;;;0.50;0.40;;;;;;;;;;5116120;28;20202;-58
2023/01/03 11:28:20;;;;;;;0.40;0.40;;;;;;;;;;5116443;28;20591;-58
2023/01/03 11:30:53;;;;;;;0.80;0.50;;;;;;;;;;5114700;28;20217;-58
2023/01/03 11:33:30;;;;;;;0.45;0.40;;;;;;;;;;5115808;28;20297;-58
2023/01/03 11:36:07;;;;;;;0.63;0.50;;;;;;;;;;5116023;28;20245;-59
2023/01/03 11:38:47;;;;;;;0.55;0.50;;;;;;;;;;5116040;28;20224;-59
2023/01/03 11:41:28;;;;;;;0.50;0.50;;;;;;;;;;5115799;28;20205;-59
2023/01/03 11:44:04;;;;;;;0.50;0.50;;;;;;;;;;5114497;28;20321;-58
2023/01/03 11:46:39;;;;;;;0.60;0.50;;;;;;;;;;5114131;28;20238;-58
2023/01/03 11:49:16;;;;;;;0.80;0.50;;;;;;;;;;5114309;28;20194;-59
2023/01/03 11:51:53;;;;;;;0.55;0.50;;;;;;;;;;5114414;28;20285;-59
2023/01/03 11:54:33;;;;;;;0.77;0.60;;;;;;;;;;5114791;28;20195;-59
2023/01/03 11:57:04;;;;;;;0.50;0.40;;;;;;;;;;5114864;28;20501;-58
2023/01/03 11:59:39;;;;;;;0.50;0.50;;;;;;;;;;5115423;28;20285;-58
2023/01/03 12:02:24;;;;;;;0.90;0.40;;;;;;;;;;5114805;28;20206;-58
2023/01/03 12:05:00;;;;;;;0.55;0.40;;;;;;;;;;5074033;28;20215;-59
2023/01/03 12:07:33;;;;;;;0.65;0.50;;;;;;;;;;5114332;28;20305;-58
2023/01/03 12:10:05;;;;;;;1.10;0.52;;;;;;;;;;5115239;28;20195;-58
2023/01/03 12:12:42;;;;;;;0.70;0.50;;;;;;;;;;5115045;28;20640;-58
2023/01/03 12:15:14;;;;;;;0.60;0.50;;;;;;;;;;5114652;28;20499;-58
2023/01/03 12:17:45;;;;;;;1.02;0.50;;;;;;;;;;5115212;28;20617;-58
2023/01/03 12:20:16;;;;;;;0.45;0.45;;;;;;;;;;5114638;28;20588;-58
2023/01/03 12:22:48;;;;;;;0.40;0.40;;;;;;;;;;5114626;28;20227;-59
2023/01/03 12:25:19;;;;;;;0.55;0.50;;;;;;;;;;5115596;28;20209;-59
2023/01/03 12:27:49;;;;;;;0.80;0.45;;;;;;;;;;5114398;28;20268;-59
2023/01/03 12:30:24;;;;;;;0.45;0.40;;;;;;;;;;5114856;28;20310;-59
2023/01/03 12:32:54;;;;;;;0.43;0.30;;;;;;;;;;5114437;28;20190;-59
2023/01/03 12:35:29;;;;;;;0.40;0.35;;;;;;;;;;5114039;28;20195;-58
2023/01/03 12:37:58;;;;;;;0.57;0.40;;;;;;;;;;5114365;28;20624;-58
2023/01/03 12:40:32;;;;;;;0.60;0.50;;;;;;;;;;5114050;28;20249;-59
2023/01/03 12:43:05;;;;;;;0.40;0.40;;;;;;;;;;5114065;28;20321;-59
2023/01/03 12:45:39;;;;;;;0.40;0.35;;;;;;;;;;5113930;28;20493;-58
2023/01/03 12:48:08;;;;;;;0.93;0.40;;;;;;;;;;5113771;28;20886;-58
2023/01/03 12:50:40;;;;;;;0.60;0.38;;;;;;;;;;5114565;28;20214;-59
2023/01/03 12:53:22;;;;;;;0.50;0.38;;;;;;;;;;5114560;28;20239;-59
2023/01/03 12:55:57;;;;;;;0.47;0.47;;;;;;;;;;5114679;28;20301;-59
2023/01/03 12:58:30;;;;;;;0.52;0.40;;;;;;;;;;5114293;28;20689;-59
2023/01/03 13:00:59;;;;;;;0.55;0.55;;;;;;;;;;5113942;28;20268;-59
2023/01/03 13:03:30;;;;;;;0.40;0.30;;;;;;;;;;5114969;28;20321;-59
2023/01/03 13:06:00;;;;;;;0.57;0.40;;;;;;;;;;5113437;28;20205;-59
2023/01/03 13:08:32;;;;;;;0.40;0.40;;;;;;;;;;5113701;28;20210;-59
2023/01/03 13:11:01;;;;;;;0.30;0.30;;;;;;;;;;5113541;28;20199;-59
2023/01/03 13:13:29;;;;;;;0.40;0.40;;;;;;;;;;5113028;28;20638;-59
2023/01/03 13:15:56;;;;;;;0.40;0.40;;;;;;;;;;5113530;28;20201;-59
2023/01/03 13:18:32;;;;;;;0.50;0.40;;;;;;;;;;5113819;28;20544;-59
2023/01/03 13:21:01;;;;;;;0.52;0.50;;;;;;;;;;5114093;28;20297;-59
2023/01/03 13:23:36;;;;;;;0.40;0.40;;;;;;;;;;5113589;28;20518;-59
2023/01/03 13:26:24;;;;;;;0.70;0.50;;;;;;;;;;5113732;28;20249;-59
2023/01/03 13:28:51;;;;;;;0.70;0.52;;;;;;;;;;5113505;28;20198;-59
2023/01/03 13:31:46;;;;;;;0.50;0.50;;;;;;;;;;5114087;28;20260;-58
2023/01/03 13:34:19;;;;;;;0.40;0.40;;;;;;;;;;5116968;28;20202;-58
2023/01/03 13:37:01;;;;;;;0.50;0.30;;;;;;;;;;5117240;28;20203;-58
2023/01/03 13:39:37;;;;;;;0.57;0.40;;;;;;;;;;5101139;28;20210;-58
2023/01/03 13:42:05;;;;;;;0.93;0.50;;;;;;;;;;5117274;28;20194;-58
2023/01/03 13:44:33;;;;;;;0.70;0.60;;;;;;;;;;5117589;28;20233;-58
2023/01/03 13:47:00;;;;;;;0.50;0.50;;;;;;;;;;5117173;28;20238;-58
2023/01/03 13:49:28;;;;;;;0.60;0.40;;;;;;;;;;5117121;28;20298;-58
2023/01/03 13:51:56;;;;;;;0.73;0.50;;;;;;;;;;5116863;28;20199;-58
2023/01/03 13:54:26;;;;;;;0.50;0.50;;;;;;;;;;5117210;28;20201;-58
2023/01/03 13:57:01;;;;;;;0.50;0.50;;;;;;;;;;5116829;28;20519;-59
2023/01/03 13:59:32;;;;;;;0.50;0.50;;;;;;;;;;5117573;28;20229;-59
2023/01/03 14:02:08;;;;;;;0.45;0.45;;;;;;;;;;5117796;28;20341;-59
2023/01/03 14:05:02;;;;;;;1.00;0.40;;;;;;;;;;5117520;28;20226;-59
2023/01/03 14:07:44;;;;;;;0.60;0.60;;;;;;;;;;5070000;28;20206;-59
2023/01/03 14:10:36;;;;;;;0.47;0.47;;;;;;;;;;5113982;28;20195;-59
2023/01/03 14:13:19;;;;;;;0.40;0.40;;;;;;;;;;5096245;28;20195;-58
2023/01/03 14:15:47;;;;;;;0.50;0.50;;;;;;;;;;5117551;28;20282;-59
2023/01/03 14:18:19;;;;;;;0.50;0.43;;;;;;;;;;5116153;28;20195;-59
2023/01/03 14:20:48;;;;;;;0.50;0.50;;;;;;;;;;5116094;28;20206;-58
2023/01/03 14:23:17;;;;;;;0.40;0.40;;;;;;;;;;5115972;28;20199;-58
2023/01/03 14:25:45;;;;;;;0.88;0.52;;;;;;;;;;5115709;28;20286;-59
2023/01/03 14:28:18;;;;;;;0.60;0.60;;;;;;;;;;5115572;28;20612;-58
2023/01/03 14:30:47;;;;;;;0.40;0.40;;;;;;;;;;5116232;28;20199;-59
2023/01/03 14:33:18;;;;;;;0.40;0.40;;;;;;;;;;5116064;28;20203;-59
2023/01/03 14:35:46;;;;;;;0.50;0.50;;;;;;;;;;5115592;28;20242;-59
2023/01/03 14:38:24;;;;;;;0.50;0.50;;;;;;;;;;5115822;28;20282;-59
2023/01/03 14:40:51;;;;;;;0.52;0.50;;;;;;;;;;5116487;28;20570;-59
2023/01/03 14:43:20;;;;;;;0.60;0.60;;;;;;;;;;5115355;28;20218;-59
2023/01/03 14:45:50;;;;;;;0.57;0.57;;;;;;;;;;5116865;28;20203;-59
2023/01/03 14:48:18;;;;;;;0.50;0.50;;;;;;;;;;5116266;28;20249;-58
2023/01/03 14:50:45;;;;;;;0.50;0.50;;;;;;;;;;5116398;28;20207;-58
2023/01/03 14:53:13;;;;;;;0.50;0.50;;;;;;;;;;5116027;28;20229;-58
2023/01/03 14:55:41;;;;;;;0.50;0.50;;;;;;;;;;5116665;28;20761;-59
2023/01/03 14:58:23;;;;;;;0.50;0.50;;;;;;;;;;5116453;28;20206;-59
2023/01/03 15:00:51;;;;;;;0.73;0.63;;;;;;;;;;5115706;28;20301;-59
2023/01/03 15:03:19;;;;;;;0.70;0.70;;;;;;;;;;5115007;28;20332;-59
2023/01/03 15:05:46;;;;;;;0.50;0.50;;;;;;;;;;5114322;28;20360;-59
2023/01/03 15:08:21;;;;;;;0.50;0.50;;;;;;;;;;5116297;28;20326;-59
2023/01/03 15:10:51;;;;;;;0.57;0.57;;;;;;;;;;5116356;28;20203;-58
2023/01/03 15:13:23;;;;;;;0.40;0.40;;;;;;;;;;5115671;28;20651;-59
2023/01/03 15:15:54;;;;;;;0.60;0.50;;;;;;;;;;5115255;28;20207;-58
2023/01/03 15:18:23;;;;;;;0.70;0.43;;;;;;;;;;5116024;28;20229;-59
2023/01/03 15:20:52;;;;;;;1.00;0.68;;;;;;;;;;5115987;28;20207;-58
2023/01/03 15:23:26;;;;;;;0.40;0.40;;;;;;;;;;5115501;28;20298;-58
2023/01/03 15:25:53;;;;;;;0.40;0.40;;;;;;;;;;5114988;28;20195;-58
2023/01/03 15:28:26;;;;;;;0.60;0.60;;;;;;;;;;5116070;28;20207;-59
2023/01/03 15:30:54;;;;;;;0.60;0.50;;;;;;;;;;5116289;28;20781;-58
2023/01/03 15:33:31;;;;;;;0.50;0.50;;;;;;;;;;5116276;28;20545;-58
2023/01/03 15:35:59;;;;;;;0.40;0.40;;;;;;;;;;5115217;28;20206;-59
2023/01/03 15:38:31;;;;;;;0.60;0.60;;;;;;;;;;5114914;28;20297;-59
2023/01/03 15:40:58;;;;;;;0.60;0.60;;;;;;;;;;5115260;28;20210;-58
2023/01/03 15:43:29;;;;;;;0.57;0.50;;;;;;;;;;5115236;28;20501;-58
2023/01/03 15:46:01;;;;;;;0.40;0.40;;;;;;;;;;5114986;28;20286;-58
2023/01/03 15:48:30;;;;;;;0.50;0.50;;;;;;;;;;5114742;28;20235;-58
2023/01/03 15:50:58;;;;;;;0.38;0.38;;;;;;;;;;5115975;28;20194;-59
2023/01/03 15:53:27;;;;;;;0.50;0.50;;;;;;;;;;5115424;28;20560;-59
2023/01/03 15:55:57;;;;;;;0.70;0.38;;;;;;;;;;5114871;28;20203;-59
2023/01/03 15:58:25;;;;;;;0.50;0.50;;;;;;;;;;5115530;28;20210;-59
2023/01/03 16:00:55;;;;;;;0.55;0.50;;;;;;;;;;5115257;28;20199;-58